createdAt,value
2023-05-14T00:01:36.911Z,69.38
2023-05-14T00:04:05.052Z,69.54
2023-05-14T00:06:33.018Z,71.19
2023-05-14T00:09:01.155Z,70.20
2023-05-14T00:11:29.031Z,68.42
2023-05-14T00:13:57.263Z,69.01
2023-05-14T00:16:25.361Z,69.29
2023-05-14T00:18:53.704Z,69.20
2023-05-14T00:21:21.807Z,69.33
2023-05-14T00:23:50.054Z,68.53
2023-05-14T00:26:17.990Z,68.36
2023-05-14T00:28:46.513Z,67.43
2023-05-14T00:31:14.797Z,67.43
2023-05-14T00:33:42.868Z,67.00
2023-05-14T00:36:11.022Z,67.49
2023-05-14T00:38:39.194Z,67.97
2023-05-14T00:41:09.286Z,68.15
2023-05-14T00:43:37.245Z,67.22
2023-05-14T00:46:06.073Z,67.57
2023-05-14T00:48:34.457Z,67.95
2023-05-14T00:51:02.582Z,67.81
2023-05-14T00:53:30.712Z,68.15
2023-05-14T00:55:59.206Z,67.01
2023-05-14T00:58:27.749Z,68.44
2023-05-14T01:00:56.383Z,69.43
2023-05-14T01:03:24.481Z,69.74
2023-05-14T01:06:11.350Z,70.92
2023-05-14T01:08:45.325Z,69.47
2023-05-14T01:11:42.600Z,70.88
2023-05-14T01:14:10.559Z,70.85
2023-05-14T01:16:40.479Z,69.83
2023-05-14T01:19:17.540Z,68.74
2023-05-14T01:21:45.718Z,68.65
2023-05-14T01:24:13.891Z,68.73
2023-05-14T01:26:42.035Z,68.08
2023-05-14T01:29:22.163Z,68.76
2023-05-14T01:31:51.470Z,69.93
2023-05-14T01:34:21.271Z,70.36
2023-05-14T01:36:50.829Z,70.50
2023-05-14T01:39:19.372Z,70.72
2023-05-14T01:41:48.918Z,69.70
2023-05-14T01:44:17.611Z,69.04
2023-05-14T01:46:45.769Z,70.19
2023-05-14T01:49:14.037Z,71.52
2023-05-14T01:51:42.227Z,73.39
2023-05-14T01:54:10.381Z,73.44
2023-05-14T01:56:38.357Z,72.98
2023-05-14T01:59:06.537Z,73.04
2023-05-14T02:01:34.786Z,73.90
2023-05-14T02:04:02.871Z,73.33
2023-05-14T02:06:32.407Z,73.04
2023-05-14T02:09:00.334Z,73.43
2023-05-14T02:11:28.412Z,73.12
2023-05-14T02:13:56.398Z,73.03
2023-05-14T02:16:24.985Z,73.41
2023-05-14T02:18:53.066Z,73.02
2023-05-14T02:21:21.097Z,71.64
2023-05-14T02:23:50.412Z,71.51
2023-05-14T02:26:18.374Z,71.45
2023-05-14T02:28:46.449Z,71.45
2023-05-14T02:31:14.793Z,71.46
2023-05-14T02:33:43.212Z,71.44
2023-05-14T02:36:11.709Z,71.14
2023-05-14T02:38:39.830Z,71.32
2023-05-14T02:41:08.016Z,72.04
2023-05-14T02:43:36.001Z,70.42
2023-05-14T02:46:04.301Z,69.95
2023-05-14T02:48:32.448Z,70.33
2023-05-14T02:51:00.748Z,70.52
2023-05-14T02:53:28.798Z,70.51
2023-05-14T02:55:56.694Z,68.96
2023-05-14T02:58:26.866Z,69.20
2023-05-14T03:00:56.640Z,69.92
2023-05-14T03:03:25.611Z,70.11
2023-05-14T03:05:54.197Z,69.38
2023-05-14T03:08:22.132Z,69.01
2023-05-14T03:10:50.166Z,68.34
2023-05-14T03:13:20.220Z,67.71
2023-05-14T03:15:48.845Z,67.38
2023-05-14T03:18:17.076Z,66.55
2023-05-14T03:20:47.288Z,64.80
2023-05-14T03:23:15.550Z,62.48
2023-05-14T03:25:43.502Z,59.30
2023-05-14T03:28:11.568Z,57.02
2023-05-14T03:30:39.721Z,55.73
2023-05-14T03:33:07.910Z,52.75
2023-05-14T03:35:36.024Z,51.75
2023-05-14T03:38:03.995Z,51.44
2023-05-14T03:40:32.272Z,50.97
2023-05-14T03:43:00.191Z,50.66
2023-05-14T03:45:30.435Z,49.49
2023-05-14T03:47:59.857Z,48.77
2023-05-14T03:50:28.235Z,49.73
2023-05-14T03:52:56.517Z,51.33
2023-05-14T03:55:24.659Z,51.10
2023-05-14T03:57:52.863Z,51.00
2023-05-14T04:00:21.624Z,52.13
2023-05-14T04:02:49.977Z,52.18
2023-05-14T04:05:18.714Z,51.43
2023-05-14T04:07:46.961Z,51.07
2023-05-14T04:10:14.880Z,51.05
2023-05-14T04:12:43.050Z,50.61
2023-05-14T04:15:11.531Z,49.62
2023-05-14T04:17:39.583Z,48.36
2023-05-14T04:20:08.134Z,46.63
2023-05-14T04:22:36.439Z,45.69
2023-05-14T04:25:04.697Z,44.09
2023-05-14T04:27:33.182Z,41.36
2023-05-14T04:30:01.465Z,39.77
2023-05-14T04:32:30.416Z,38.16
2023-05-14T04:34:58.626Z,38.41
2023-05-14T04:37:26.975Z,37.11
2023-05-14T04:39:54.992Z,35.53
2023-05-14T04:42:23.220Z,34.14
2023-05-14T04:44:51.232Z,34.60
2023-05-14T04:47:19.802Z,35.41
2023-05-14T04:49:47.996Z,34.31
2023-05-14T04:52:16.038Z,33.53
2023-05-14T04:54:44.048Z,34.31
2023-05-14T04:57:12.051Z,32.41
2023-05-14T04:59:40.151Z,31.07
2023-05-14T05:02:08.532Z,31.23
2023-05-14T05:04:36.809Z,30.17
2023-05-14T05:07:05.900Z,29.46
2023-05-14T05:09:33.815Z,29.60
2023-05-14T05:12:02.055Z,29.82
2023-05-14T05:14:30.121Z,29.65
2023-05-14T05:16:58.288Z,30.21
2023-05-14T05:19:35.811Z,30.54
2023-05-14T05:22:08.155Z,31.41
2023-05-14T05:24:36.122Z,31.68
2023-05-14T05:27:05.619Z,32.54
2023-05-14T05:29:35.324Z,33.83
2023-05-14T05:32:04.077Z,34.47
2023-05-14T05:34:32.218Z,34.20
2023-05-14T05:37:00.161Z,34.71
2023-05-14T05:39:28.262Z,35.04
2023-05-14T05:41:56.415Z,35.42
2023-05-14T05:44:25.147Z,35.86
2023-05-14T05:46:53.180Z,35.82
2023-05-14T05:49:21.249Z,36.09
2023-05-14T05:51:49.153Z,36.48
2023-05-14T05:54:17.103Z,36.28
2023-05-14T05:56:45.152Z,35.85
2023-05-14T05:59:13.312Z,35.35
2023-05-14T06:01:43.586Z,34.96
2023-05-14T06:04:11.605Z,34.52
2023-05-14T06:06:39.777Z,33.98
2023-05-14T06:09:09.094Z,33.63
2023-05-14T06:11:37.109Z,33.22
2023-05-14T06:14:04.976Z,33.07
2023-05-14T06:16:33.456Z,33.05
2023-05-14T06:19:02.240Z,33.46
2023-05-14T06:21:30.582Z,33.42
2023-05-14T06:23:58.599Z,33.07
2023-05-14T06:26:26.596Z,33.29
2023-05-14T06:28:54.656Z,33.93
2023-05-14T06:31:22.729Z,33.80
2023-05-14T06:33:50.817Z,33.79
2023-05-14T06:36:18.955Z,33.54
2023-05-14T06:38:46.948Z,32.78
2023-05-14T06:41:14.920Z,31.82
2023-05-14T06:43:43.063Z,31.44
2023-05-14T06:46:11.030Z,30.72
2023-05-14T06:48:39.082Z,30.36
2023-05-14T06:51:07.200Z,30.65
2023-05-14T06:53:35.091Z,30.34
2023-05-14T06:56:03.291Z,31.86
2023-05-14T06:58:31.415Z,32.36
2023-05-14T07:01:00.333Z,32.41
2023-05-14T07:03:29.406Z,33.06
2023-05-14T07:05:57.294Z,33.43
2023-05-14T07:08:25.558Z,33.08
2023-05-14T07:10:53.621Z,32.66
2023-05-14T07:13:21.896Z,32.92
2023-05-14T07:15:49.996Z,32.62
2023-05-14T07:18:18.078Z,33.98
2023-05-14T07:20:46.005Z,34.21
2023-05-14T07:23:14.139Z,34.01
2023-05-14T07:25:42.142Z,33.25
2023-05-14T07:28:10.132Z,34.58
2023-05-14T07:30:37.985Z,35.69
2023-05-14T07:33:06.061Z,35.20
2023-05-14T07:35:34.636Z,34.94
2023-05-14T07:38:03.328Z,35.72
2023-05-14T07:40:31.643Z,35.21
2023-05-14T07:42:59.716Z,34.43
2023-05-14T07:45:27.885Z,35.13
2023-05-14T07:47:56.237Z,35.93
2023-05-14T07:50:24.568Z,36.39
2023-05-14T07:52:53.045Z,35.78
2023-05-14T07:55:21.263Z,35.30
2023-05-14T07:57:49.322Z,35.23
2023-05-14T08:00:17.508Z,36.52
2023-05-14T08:02:45.576Z,36.76
2023-05-14T08:05:13.917Z,36.42
2023-05-14T08:07:41.998Z,36.68
2023-05-14T08:10:10.238Z,35.94
2023-05-14T08:12:39.143Z,36.42
2023-05-14T08:15:07.987Z,36.43
2023-05-14T08:17:36.181Z,35.70
2023-05-14T08:20:06.709Z,36.01
2023-05-14T08:22:34.644Z,35.52
2023-05-14T08:25:03.962Z,35.58
2023-05-14T08:27:32.522Z,34.89
2023-05-14T08:30:00.535Z,33.94
2023-05-14T08:32:28.777Z,33.81
2023-05-14T08:34:57.013Z,33.73
2023-05-14T08:37:25.384Z,32.95
2023-05-14T08:39:53.398Z,31.94
2023-05-14T08:42:22.218Z,31.93
2023-05-14T08:44:57.193Z,32.21
2023-05-14T08:47:25.423Z,32.60
2023-05-14T08:49:58.786Z,32.26
2023-05-14T08:52:26.994Z,31.85
2023-05-14T08:54:56.152Z,32.58
2023-05-14T08:57:26.842Z,32.60
2023-05-14T08:59:54.891Z,32.59
2023-05-14T09:02:25.085Z,32.64
2023-05-14T09:04:56.148Z,33.09
2023-05-14T09:07:24.767Z,33.17
2023-05-14T09:09:53.252Z,33.56
2023-05-14T09:12:21.967Z,34.30
2023-05-14T09:14:50.632Z,34.31
2023-05-14T09:17:19.074Z,35.66
2023-05-14T09:19:49.334Z,35.09
2023-05-14T09:22:17.962Z,35.23
2023-05-14T09:24:46.519Z,35.12
2023-05-14T09:27:21.462Z,35.21
2023-05-14T09:29:49.405Z,36.25
2023-05-14T09:32:18.005Z,35.07
2023-05-14T09:34:45.975Z,35.01
2023-05-14T09:37:14.149Z,34.68
2023-05-14T09:39:42.066Z,33.63
2023-05-14T09:42:10.194Z,31.84
2023-05-14T09:44:38.976Z,31.93
2023-05-14T09:47:06.956Z,32.53
2023-05-14T09:49:35.410Z,33.62
2023-05-14T09:52:03.900Z,33.36
2023-05-14T09:54:32.181Z,34.40
2023-05-14T09:57:00.251Z,33.77
2023-05-14T09:59:28.219Z,33.03
2023-05-14T10:01:57.721Z,32.88
2023-05-14T10:04:26.079Z,33.98
2023-05-14T10:06:55.197Z,34.04
2023-05-14T10:09:27.476Z,34.13
2023-05-14T10:11:59.291Z,33.86
2023-05-14T10:14:29.820Z,34.24
2023-05-14T10:16:59.488Z,35.06
2023-05-14T10:19:28.361Z,35.82
2023-05-14T10:21:57.653Z,35.71
2023-05-14T10:24:26.335Z,35.36
2023-05-14T10:26:54.454Z,36.78
2023-05-14T10:29:31.833Z,37.34
2023-05-14T10:32:03.724Z,36.94
2023-05-14T10:34:33.578Z,37.71
2023-05-14T10:37:02.259Z,37.49
2023-05-14T10:39:45.714Z,38.07
2023-05-14T10:42:21.450Z,38.10
2023-05-14T10:44:49.527Z,37.94
2023-05-14T10:47:18.337Z,36.74
2023-05-14T10:49:50.595Z,35.61
2023-05-14T10:52:19.582Z,36.50
2023-05-14T10:54:57.002Z,36.64
2023-05-14T10:57:29.219Z,36.44
2023-05-14T10:59:58.486Z,36.63
2023-05-14T11:02:26.725Z,36.53
2023-05-14T11:04:54.663Z,35.48
2023-05-14T11:07:24.412Z,34.93
2023-05-14T11:09:52.781Z,35.31
2023-05-14T11:12:21.382Z,35.41
2023-05-14T11:14:50.781Z,35.83
2023-05-14T11:17:19.307Z,36.73
2023-05-14T11:19:48.861Z,36.79
2023-05-14T11:22:18.563Z,36.78
2023-05-14T11:24:46.710Z,36.44
2023-05-14T11:27:14.907Z,36.20
2023-05-14T11:29:46.388Z,36.19
2023-05-14T11:32:15.125Z,36.50
2023-05-14T11:34:44.972Z,36.87
2023-05-14T11:37:14.235Z,36.69
2023-05-14T11:39:49.074Z,37.31
2023-05-14T11:42:18.812Z,38.03
2023-05-14T11:44:47.966Z,37.86
2023-05-14T11:47:17.273Z,37.95
2023-05-14T11:49:45.976Z,38.08
2023-05-14T11:52:15.069Z,38.54
2023-05-14T11:54:44.350Z,38.41
2023-05-14T11:57:13.301Z,38.87
2023-05-14T11:59:41.407Z,39.28
2023-05-14T12:02:14.026Z,39.59
2023-05-14T12:04:42.915Z,39.30
2023-05-14T12:07:12.030Z,39.46
2023-05-14T12:09:49.273Z,38.39
2023-05-14T12:12:21.387Z,37.93
2023-05-14T12:14:50.029Z,38.19
2023-05-14T12:17:19.004Z,38.23
2023-05-14T12:19:51.167Z,37.86
2023-05-14T12:22:22.913Z,37.96
2023-05-14T12:24:54.849Z,38.45
2023-05-14T12:27:24.767Z,38.08
2023-05-14T12:30:19.884Z,38.97
2023-05-14T12:32:52.913Z,39.53
2023-05-14T12:35:21.641Z,39.58
2023-05-14T12:37:49.664Z,39.82
2023-05-14T12:40:18.026Z,39.25
2023-05-14T12:42:46.121Z,38.73
2023-05-14T12:45:14.168Z,37.96
2023-05-14T12:47:42.401Z,38.39
2023-05-14T12:50:10.823Z,37.93
2023-05-14T12:52:40.873Z,38.22
2023-05-14T12:55:09.730Z,38.58
2023-05-14T12:57:39.334Z,38.35
2023-05-14T13:00:09.890Z,38.71
2023-05-14T13:02:42.741Z,38.91
2023-05-14T13:05:12.174Z,39.37
2023-05-14T13:07:40.234Z,39.25
2023-05-14T13:10:08.612Z,39.85
2023-05-14T13:12:36.530Z,40.91
2023-05-14T13:15:04.946Z,41.70
2023-05-14T13:17:32.945Z,42.67
2023-05-14T13:20:01.107Z,43.58
2023-05-14T13:22:29.714Z,45.02
2023-05-14T13:24:57.712Z,46.58
2023-05-14T13:27:26.228Z,47.96
2023-05-14T13:29:54.188Z,49.34
2023-05-14T13:32:22.113Z,49.35
2023-05-14T13:34:50.640Z,51.33
2023-05-14T13:37:18.712Z,52.11
2023-05-14T13:39:46.678Z,52.22
2023-05-14T13:42:14.577Z,53.49
2023-05-14T13:44:42.465Z,54.22
2023-05-14T13:47:10.791Z,55.53
2023-05-14T13:49:40.396Z,54.15
2023-05-14T13:52:08.325Z,55.58
2023-05-14T13:54:36.343Z,55.37
2023-05-14T13:57:04.630Z,54.56
2023-05-14T13:59:32.578Z,54.88
2023-05-14T14:02:00.912Z,56.47
2023-05-14T14:04:29.248Z,56.73
2023-05-14T14:06:57.568Z,55.06
2023-05-14T14:09:25.958Z,53.29
2023-05-14T14:11:54.039Z,51.29
2023-05-14T14:14:22.095Z,50.59
2023-05-14T14:16:50.099Z,51.36
2023-05-14T14:19:18.681Z,52.55
2023-05-14T14:21:46.959Z,51.59
2023-05-14T14:24:14.857Z,50.25
2023-05-14T14:26:42.803Z,48.32
2023-05-14T14:29:10.723Z,48.38
2023-05-14T14:31:38.657Z,48.07
2023-05-14T14:34:06.728Z,48.72
2023-05-14T14:36:34.767Z,48.58
2023-05-14T14:39:02.673Z,46.70
2023-05-14T14:41:30.940Z,47.04
2023-05-14T14:43:59.187Z,46.04
2023-05-14T14:46:27.189Z,45.79
2023-05-14T14:48:55.327Z,45.98
2023-05-14T14:51:23.450Z,45.86
2023-05-14T14:53:51.583Z,46.33
2023-05-14T14:56:19.490Z,46.80
2023-05-14T14:58:47.510Z,47.33
2023-05-14T15:01:15.915Z,47.37
2023-05-14T15:03:45.812Z,47.77
2023-05-14T15:06:13.987Z,47.94
2023-05-14T15:08:42.169Z,47.86
2023-05-14T15:11:10.429Z,48.04
2023-05-14T15:13:40.257Z,48.87
2023-05-14T15:16:08.550Z,48.45
2023-05-14T15:18:36.999Z,49.41
2023-05-14T15:21:05.316Z,50.07
2023-05-14T15:23:33.286Z,50.44
2023-05-14T15:26:01.823Z,52.17
2023-05-14T15:28:29.791Z,51.94
2023-05-14T15:30:58.072Z,52.15
2023-05-14T15:33:26.180Z,54.01
2023-05-14T15:35:54.625Z,56.61
2023-05-14T15:38:22.904Z,55.20
2023-05-14T15:40:51.186Z,54.97
2023-05-14T15:43:19.093Z,55.21
2023-05-14T15:45:47.237Z,56.42
2023-05-14T15:48:15.198Z,56.24
2023-05-14T15:50:43.679Z,55.41
2023-05-14T15:53:11.856Z,55.24
2023-05-14T15:55:39.951Z,54.98
2023-05-14T15:58:08.073Z,55.12
2023-05-14T16:00:36.554Z,54.02
2023-05-14T16:03:04.793Z,54.15
2023-05-14T16:05:33.103Z,54.34
2023-05-14T16:08:01.241Z,54.49
2023-05-14T16:10:29.866Z,54.35
2023-05-14T16:12:57.779Z,53.42
2023-05-14T16:15:25.805Z,53.20
2023-05-14T16:17:53.852Z,52.08
2023-05-14T16:20:22.016Z,51.79
2023-05-14T16:22:50.149Z,51.77
2023-05-14T16:25:18.815Z,51.58
2023-05-14T16:27:47.071Z,50.64
2023-05-14T16:30:15.194Z,50.53
2023-05-14T16:32:43.462Z,50.57
2023-05-14T16:35:11.541Z,50.69
2023-05-14T16:37:39.484Z,50.19
2023-05-14T16:40:09.498Z,49.93
2023-05-14T16:42:37.777Z,49.83
2023-05-14T16:45:05.908Z,50.04
2023-05-14T16:47:34.020Z,50.07
2023-05-14T16:50:02.069Z,49.92
2023-05-14T16:52:30.989Z,51.04
2023-05-14T16:54:59.111Z,50.84
2023-05-14T16:57:27.243Z,50.83
2023-05-14T16:59:55.149Z,51.29
2023-05-14T17:02:23.182Z,50.85
2023-05-14T17:04:51.369Z,51.58
2023-05-14T17:07:19.474Z,51.62
2023-05-14T17:09:47.460Z,52.31
2023-05-14T17:12:15.481Z,52.72
2023-05-14T17:14:43.583Z,53.04
2023-05-14T17:17:11.550Z,53.07
2023-05-14T17:19:39.656Z,53.51
2023-05-14T17:22:07.696Z,53.53
2023-05-14T17:24:36.617Z,53.86
2023-05-14T17:27:06.152Z,53.99
2023-05-14T17:29:34.356Z,54.06
2023-05-14T17:32:03.650Z,54.60
2023-05-14T17:34:31.719Z,53.62
2023-05-14T17:37:00.981Z,53.44
2023-05-14T17:39:29.307Z,52.71
2023-05-14T17:41:57.235Z,52.85
2023-05-14T17:44:25.651Z,52.74
2023-05-14T17:46:53.968Z,53.03
2023-05-14T17:49:22.059Z,53.04
2023-05-14T17:51:50.198Z,52.98
2023-05-14T17:54:18.336Z,53.22
2023-05-14T17:56:48.278Z,53.50
2023-05-14T17:59:16.859Z,53.51
2023-05-14T18:01:44.751Z,53.50
2023-05-14T18:04:12.810Z,53.40
2023-05-14T18:06:40.874Z,53.04
2023-05-14T18:09:09.021Z,53.38
2023-05-14T18:11:37.115Z,53.20
2023-05-14T18:14:05.085Z,52.81
2023-05-14T18:16:33.070Z,52.82
2023-05-14T18:19:01.355Z,52.58
2023-05-14T18:21:29.491Z,52.44
2023-05-14T18:23:57.624Z,52.67
2023-05-14T18:26:26.777Z,52.69
2023-05-14T18:28:54.946Z,52.73
2023-05-14T18:31:23.126Z,52.83
2023-05-14T18:33:51.731Z,53.06
2023-05-14T18:36:20.033Z,52.74
2023-05-14T18:38:47.972Z,52.56
2023-05-14T18:41:16.221Z,52.99
2023-05-14T18:43:44.806Z,53.20
2023-05-14T18:46:12.865Z,53.19
2023-05-14T18:48:41.556Z,53.32
2023-05-14T18:51:11.315Z,53.53
2023-05-14T18:53:39.414Z,52.89
2023-05-14T18:56:08.434Z,52.81
2023-05-14T18:58:36.425Z,52.39
2023-05-14T19:01:04.390Z,52.12
2023-05-14T19:03:32.733Z,51.25
2023-05-14T19:06:00.829Z,50.52
2023-05-14T19:08:28.955Z,50.67
2023-05-14T19:10:56.849Z,50.57
2023-05-14T19:13:25.153Z,50.18
2023-05-14T19:15:53.422Z,49.46
2023-05-14T19:18:21.550Z,49.70
2023-05-14T19:20:49.503Z,50.74
2023-05-14T19:23:17.602Z,52.03
2023-05-14T19:25:45.781Z,52.42
2023-05-14T19:28:14.171Z,52.24
2023-05-14T19:30:42.184Z,52.03
2023-05-14T19:33:10.371Z,51.93
2023-05-14T19:35:38.381Z,51.68
2023-05-14T19:38:06.371Z,51.24
2023-05-14T19:40:34.234Z,51.00
2023-05-14T19:43:02.399Z,50.58
2023-05-14T19:45:30.637Z,50.40
2023-05-14T19:47:58.601Z,50.00
2023-05-14T19:50:26.657Z,50.24
2023-05-14T19:52:54.798Z,50.48
2023-05-14T19:55:22.970Z,50.43
2023-05-14T19:57:51.155Z,50.27
2023-05-14T20:00:19.294Z,50.24
2023-05-14T20:02:47.956Z,50.04
2023-05-14T20:05:16.716Z,50.07
2023-05-14T20:07:45.046Z,50.03
2023-05-14T20:10:14.200Z,50.09
2023-05-14T20:12:42.152Z,50.59
2023-05-14T20:15:10.386Z,50.57
2023-05-14T20:17:38.802Z,50.81
2023-05-14T20:20:08.258Z,51.56
2023-05-14T20:22:36.239Z,51.75
2023-05-14T20:25:04.410Z,52.09
2023-05-14T20:27:32.829Z,51.74
2023-05-14T20:30:01.064Z,51.54
2023-05-14T20:32:29.123Z,51.36
2023-05-14T20:35:02.189Z,50.75
2023-05-14T20:37:30.707Z,50.83
2023-05-14T20:39:59.838Z,50.79
2023-05-14T20:42:28.585Z,50.63
2023-05-14T20:44:57.629Z,50.49
2023-05-14T20:47:26.827Z,50.86
2023-05-14T20:49:54.947Z,50.98
2023-05-14T20:52:22.831Z,50.84
2023-05-14T20:54:50.895Z,51.03
2023-05-14T20:57:19.261Z,50.50
2023-05-14T20:59:47.653Z,50.48
2023-05-14T21:02:15.942Z,50.29
2023-05-14T21:04:44.364Z,50.49
2023-05-14T21:07:12.469Z,50.16
2023-05-14T21:09:40.521Z,50.05
2023-05-14T21:12:08.769Z,50.18
2023-05-14T21:14:37.017Z,50.09
2023-05-14T21:17:05.215Z,49.99
2023-05-14T21:19:33.207Z,49.73
2023-05-14T21:22:01.134Z,49.41
2023-05-14T21:24:29.114Z,49.28
2023-05-14T21:26:57.100Z,49.29
2023-05-14T21:29:25.196Z,49.28
2023-05-14T21:31:53.575Z,49.29
2023-05-14T21:34:21.658Z,49.38
2023-05-14T21:36:50.141Z,49.60
2023-05-14T21:39:18.055Z,49.26
2023-05-14T21:41:46.176Z,48.48
2023-05-14T21:44:14.456Z,48.61
2023-05-14T21:46:42.416Z,48.62
2023-05-14T21:49:10.494Z,48.70
2023-05-14T21:51:38.600Z,48.65
2023-05-14T21:54:07.070Z,48.77
2023-05-14T21:56:35.406Z,48.73
2023-05-14T21:59:03.447Z,49.25
2023-05-14T22:01:32.593Z,49.32
2023-05-14T22:04:01.938Z,49.43
2023-05-14T22:06:29.958Z,49.23
2023-05-14T22:08:57.931Z,48.94
2023-05-14T22:11:25.860Z,49.14
2023-05-14T22:13:53.968Z,49.13
2023-05-14T22:16:22.541Z,49.02
2023-05-14T22:18:50.573Z,48.53
2023-05-14T22:21:18.594Z,48.57
2023-05-14T22:23:46.664Z,48.60
2023-05-14T22:26:14.725Z,48.52
2023-05-14T22:28:43.755Z,48.66
2023-05-14T22:31:11.685Z,48.85
2023-05-14T22:33:39.660Z,48.95
2023-05-14T22:36:08.437Z,49.00
2023-05-14T22:38:36.391Z,49.07
2023-05-14T22:41:04.487Z,49.31
2023-05-14T22:43:32.519Z,49.31
2023-05-14T22:46:00.685Z,49.27
2023-05-14T22:48:28.620Z,49.03
2023-05-14T22:50:56.508Z,49.21
2023-05-14T22:53:25.289Z,49.35
2023-05-14T22:55:53.521Z,49.78
2023-05-14T22:58:21.824Z,49.61
2023-05-14T23:00:49.958Z,49.33
2023-05-14T23:03:17.923Z,49.18
2023-05-14T23:05:46.202Z,49.33
2023-05-14T23:08:14.184Z,49.21
2023-05-14T23:10:42.166Z,49.06
2023-05-14T23:13:10.331Z,49.08
2023-05-14T23:15:39.014Z,48.95
2023-05-14T23:18:08.012Z,48.94
2023-05-14T23:20:36.178Z,49.14
2023-05-14T23:23:04.307Z,49.10
2023-05-14T23:25:32.575Z,49.34
2023-05-14T23:28:00.597Z,49.82
2023-05-14T23:30:28.659Z,50.39
2023-05-14T23:32:56.963Z,50.64
2023-05-14T23:35:25.253Z,50.73
2023-05-14T23:37:55.367Z,51.00
2023-05-14T23:40:23.619Z,51.42
2023-05-14T23:42:51.538Z,51.24
2023-05-14T23:45:19.488Z,51.27
2023-05-14T23:47:47.433Z,51.40
2023-05-14T23:50:15.506Z,51.69
2023-05-14T23:52:43.783Z,51.86
2023-05-14T23:55:11.904Z,51.57
2023-05-14T23:57:40.054Z,51.65
